sensor_id;sensor_type;location;lat;lon;timestamp;temperature;humidity
28524;DHT22;15734;50.904;6.922;2023-04-16T00:00:42;8.50;99.90
28524;DHT22;15734;50.904;6.922;2023-04-16T00:03:07;8.50;99.90
28524;DHT22;15734;50.904;6.922;2023-04-16T00:05:33;8.50;99.90
28524;DHT22;15734;50.904;6.922;2023-04-16T00:07:58;8.50;99.90
28524;DHT22;15734;50.904;6.922;2023-04-16T00:10:24;8.50;99.90
28524;DHT22;15734;50.904;6.922;2023-04-16T00:12:49;8.50;99.90
28524;DHT22;15734;50.904;6.922;2023-04-16T00:15:15;8.50;99.90
28524;DHT22;15734;50.904;6.922;2023-04-16T00:17:40;8.50;99.90
28524;DHT22;15734;50.904;6.922;2023-04-16T00:20:06;8.50;99.90
28524;DHT22;15734;50.904;6.922;2023-04-16T00:22:33;8.50;99.90
28524;DHT22;15734;50.904;6.922;2023-04-16T00:24:58;8.50;99.90
28524;DHT22;15734;50.904;6.922;2023-04-16T00:27:24;8.50;99.90
28524;DHT22;15734;50.904;6.922;2023-04-16T00:29:49;8.50;99.90
28524;DHT22;15734;50.904;6.922;2023-04-16T00:32:15;8.50;99.90
28524;DHT22;15734;50.904;6.922;2023-04-16T00:34:40;8.50;99.90
28524;DHT22;15734;50.904;6.922;2023-04-16T00:37:06;8.50;99.90
28524;DHT22;15734;50.904;6.922;2023-04-16T00:39:31;8.50;99.90
28524;DHT22;15734;50.904;6.922;2023-04-16T00:41:57;8.50;99.90
28524;DHT22;15734;50.904;6.922;2023-04-16T00:44:22;8.50;99.90
28524;DHT22;15734;50.904;6.922;2023-04-16T00:46:48;8.50;99.90
28524;DHT22;15734;50.904;6.922;2023-04-16T00:49:13;8.60;99.90
28524;DHT22;15734;50.904;6.922;2023-04-16T00:51:39;8.50;99.90
28524;DHT22;15734;50.904;6.922;2023-04-16T00:54:05;8.50;99.90
28524;DHT22;15734;50.904;6.922;2023-04-16T00:56:30;8.50;99.90
28524;DHT22;15734;50.904;6.922;2023-04-16T00:58:56;8.50;99.90
28524;DHT22;15734;50.904;6.922;2023-04-16T01:01:21;8.50;99.90
28524;DHT22;15734;50.904;6.922;2023-04-16T01:03:47;8.50;99.90
28524;DHT22;15734;50.904;6.922;2023-04-16T01:06:13;8.50;99.90
28524;DHT22;15734;50.904;6.922;2023-04-16T01:08:38;8.50;99.90
28524;DHT22;15734;50.904;6.922;2023-04-16T01:11:04;8.50;99.90
28524;DHT22;15734;50.904;6.922;2023-04-16T01:13:30;8.50;99.90
28524;DHT22;15734;50.904;6.922;2023-04-16T01:15:55;8.50;99.90
28524;DHT22;15734;50.904;6.922;2023-04-16T01:18:21;8.50;99.90
28524;DHT22;15734;50.904;6.922;2023-04-16T01:20:47;8.50;99.90
28524;DHT22;15734;50.904;6.922;2023-04-16T01:23:13;8.50;99.90
28524;DHT22;15734;50.904;6.922;2023-04-16T01:25:38;8.50;99.90
28524;DHT22;15734;50.904;6.922;2023-04-16T01:28:04;8.50;99.90
28524;DHT22;15734;50.904;6.922;2023-04-16T01:30:29;8.50;99.90
28524;DHT22;15734;50.904;6.922;2023-04-16T01:32:55;8.50;99.90
28524;DHT22;15734;50.904;6.922;2023-04-16T01:35:22;8.50;99.90
28524;DHT22;15734;50.904;6.922;2023-04-16T01:37:48;8.50;99.90
28524;DHT22;15734;50.904;6.922;2023-04-16T01:40:14;8.50;99.90
28524;DHT22;15734;50.904;6.922;2023-04-16T01:42:39;8.50;99.90
28524;DHT22;15734;50.904;6.922;2023-04-16T01:45:05;8.50;99.90
28524;DHT22;15734;50.904;6.922;2023-04-16T01:47:31;8.50;99.90
28524;DHT22;15734;50.904;6.922;2023-04-16T01:49:58;8.50;99.90
28524;DHT22;15734;50.904;6.922;2023-04-16T01:52:23;8.50;99.90
28524;DHT22;15734;50.904;6.922;2023-04-16T01:54:49;8.50;99.90
28524;DHT22;15734;50.904;6.922;2023-04-16T01:57:14;8.50;99.90
28524;DHT22;15734;50.904;6.922;2023-04-16T01:59:39;8.50;99.90
28524;DHT22;15734;50.904;6.922;2023-04-16T02:02:14;8.40;99.90
28524;DHT22;15734;50.904;6.922;2023-04-16T02:04:41;8.50;99.90
28524;DHT22;15734;50.904;6.922;2023-04-16T02:07:07;8.40;99.90
28524;DHT22;15734;50.904;6.922;2023-04-16T02:09:33;8.40;99.90
28524;DHT22;15734;50.904;6.922;2023-04-16T02:11:59;8.40;99.90
28524;DHT22;15734;50.904;6.922;2023-04-16T02:14:26;8.40;99.90
28524;DHT22;15734;50.904;6.922;2023-04-16T02:16:52;8.40;99.90
28524;DHT22;15734;50.904;6.922;2023-04-16T02:19:17;8.40;99.90
28524;DHT22;15734;50.904;6.922;2023-04-16T02:21:43;8.50;99.90
28524;DHT22;15734;50.904;6.922;2023-04-16T02:24:08;8.50;99.90
28524;DHT22;15734;50.904;6.922;2023-04-16T02:26:34;8.40;99.90
28524;DHT22;15734;50.904;6.922;2023-04-16T02:28:59;8.40;99.90
28524;DHT22;15734;50.904;6.922;2023-04-16T02:31:25;8.40;99.90
28524;DHT22;15734;50.904;6.922;2023-04-16T02:33:52;8.50;99.90
28524;DHT22;15734;50.904;6.922;2023-04-16T02:36:18;8.50;99.90
28524;DHT22;15734;50.904;6.922;2023-04-16T02:38:44;8.50;99.90
28524;DHT22;15734;50.904;6.922;2023-04-16T02:41:09;8.50;99.90
28524;DHT22;15734;50.904;6.922;2023-04-16T02:43:34;8.50;99.90
28524;DHT22;15734;50.904;6.922;2023-04-16T02:46:00;8.50;99.90
28524;DHT22;15734;50.904;6.922;2023-04-16T02:48:25;8.50;99.90
28524;DHT22;15734;50.904;6.922;2023-04-16T02:50:51;8.50;99.90
28524;DHT22;15734;50.904;6.922;2023-04-16T02:53:16;8.50;99.90
28524;DHT22;15734;50.904;6.922;2023-04-16T02:55:48;8.50;99.90
28524;DHT22;15734;50.904;6.922;2023-04-16T02:58:13;8.50;99.90
28524;DHT22;15734;50.904;6.922;2023-04-16T03:00:38;8.50;99.90
28524;DHT22;15734;50.904;6.922;2023-04-16T03:03:04;8.60;99.90
28524;DHT22;15734;50.904;6.922;2023-04-16T03:05:29;8.50;99.90
28524;DHT22;15734;50.904;6.922;2023-04-16T03:07:55;8.50;99.90
28524;DHT22;15734;50.904;6.922;2023-04-16T03:10:21;8.50;99.90
28524;DHT22;15734;50.904;6.922;2023-04-16T03:12:47;8.50;99.90
28524;DHT22;15734;50.904;6.922;2023-04-16T03:15:13;8.50;99.90
28524;DHT22;15734;50.904;6.922;2023-04-16T03:17:38;8.50;99.90
28524;DHT22;15734;50.904;6.922;2023-04-16T03:20:04;8.50;99.90
28524;DHT22;15734;50.904;6.922;2023-04-16T03:22:29;8.40;99.90
28524;DHT22;15734;50.904;6.922;2023-04-16T03:24:55;8.50;99.90
28524;DHT22;15734;50.904;6.922;2023-04-16T03:27:20;8.50;99.90
28524;DHT22;15734;50.904;6.922;2023-04-16T03:29:46;8.50;99.90
28524;DHT22;15734;50.904;6.922;2023-04-16T03:32:11;8.50;99.90
28524;DHT22;15734;50.904;6.922;2023-04-16T03:34:37;8.50;99.90
28524;DHT22;15734;50.904;6.922;2023-04-16T03:37:02;8.60;99.90
28524;DHT22;15734;50.904;6.922;2023-04-16T03:39:29;8.50;99.90
28524;DHT22;15734;50.904;6.922;2023-04-16T03:41:55;8.50;99.90
28524;DHT22;15734;50.904;6.922;2023-04-16T03:44:20;8.50;99.90
28524;DHT22;15734;50.904;6.922;2023-04-16T03:46:46;8.50;99.90
28524;DHT22;15734;50.904;6.922;2023-04-16T03:49:11;8.50;99.90
28524;DHT22;15734;50.904;6.922;2023-04-16T03:51:37;8.50;99.90
28524;DHT22;15734;50.904;6.922;2023-04-16T03:54:02;8.50;99.90
28524;DHT22;15734;50.904;6.922;2023-04-16T03:56:27;8.50;99.90
28524;DHT22;15734;50.904;6.922;2023-04-16T03:58:53;8.50;99.90
28524;DHT22;15734;50.904;6.922;2023-04-16T04:01:18;8.50;99.90
28524;DHT22;15734;50.904;6.922;2023-04-16T04:03:44;8.50;99.90
28524;DHT22;15734;50.904;6.922;2023-04-16T04:06:09;8.50;99.90
28524;DHT22;15734;50.904;6.922;2023-04-16T04:08:35;8.50;99.90
28524;DHT22;15734;50.904;6.922;2023-04-16T04:11:00;8.50;99.90
28524;DHT22;15734;50.904;6.922;2023-04-16T04:13:26;8.50;99.90
28524;DHT22;15734;50.904;6.922;2023-04-16T04:15:51;8.50;99.90
28524;DHT22;15734;50.904;6.922;2023-04-16T04:18:17;8.50;99.90
28524;DHT22;15734;50.904;6.922;2023-04-16T04:20:43;8.50;99.90
28524;DHT22;15734;50.904;6.922;2023-04-16T04:23:08;8.50;99.90
28524;DHT22;15734;50.904;6.922;2023-04-16T04:25:34;8.50;99.90
28524;DHT22;15734;50.904;6.922;2023-04-16T04:27:59;8.60;99.90
28524;DHT22;15734;50.904;6.922;2023-04-16T04:30:25;8.60;99.90
28524;DHT22;15734;50.904;6.922;2023-04-16T04:32:50;8.50;99.90
28524;DHT22;15734;50.904;6.922;2023-04-16T04:35:15;8.50;99.90
28524;DHT22;15734;50.904;6.922;2023-04-16T04:37:41;8.50;99.90
28524;DHT22;15734;50.904;6.922;2023-04-16T04:40:07;8.50;99.90
28524;DHT22;15734;50.904;6.922;2023-04-16T04:42:32;8.60;99.90
28524;DHT22;15734;50.904;6.922;2023-04-16T04:44:58;8.60;99.90
28524;DHT22;15734;50.904;6.922;2023-04-16T04:47:23;8.60;99.90
28524;DHT22;15734;50.904;6.922;2023-04-16T04:49:49;8.60;99.90
28524;DHT22;15734;50.904;6.922;2023-04-16T04:52:14;8.60;99.90
28524;DHT22;15734;50.904;6.922;2023-04-16T04:54:39;8.60;99.90
28524;DHT22;15734;50.904;6.922;2023-04-16T04:57:06;8.60;99.90
28524;DHT22;15734;50.904;6.922;2023-04-16T04:59:31;8.60;99.90
28524;DHT22;15734;50.904;6.922;2023-04-16T05:01:57;8.60;99.90
28524;DHT22;15734;50.904;6.922;2023-04-16T05:04:22;8.60;99.90
28524;DHT22;15734;50.904;6.922;2023-04-16T05:06:48;8.60;99.90
28524;DHT22;15734;50.904;6.922;2023-04-16T05:09:13;8.60;99.90
28524;DHT22;15734;50.904;6.922;2023-04-16T05:11:40;8.60;99.90
28524;DHT22;15734;50.904;6.922;2023-04-16T05:14:05;8.70;99.90
28524;DHT22;15734;50.904;6.922;2023-04-16T05:16:31;8.70;99.90
28524;DHT22;15734;50.904;6.922;2023-04-16T05:18:56;8.60;99.90
28524;DHT22;15734;50.904;6.922;2023-04-16T05:21:22;8.70;99.90
28524;DHT22;15734;50.904;6.922;2023-04-16T05:23:48;8.70;99.90
28524;DHT22;15734;50.904;6.922;2023-04-16T05:26:13;8.70;99.90
28524;DHT22;15734;50.904;6.922;2023-04-16T05:28:39;8.70;99.90
28524;DHT22;15734;50.904;6.922;2023-04-16T05:31:04;8.70;99.90
28524;DHT22;15734;50.904;6.922;2023-04-16T05:33:30;8.70;99.90
28524;DHT22;15734;50.904;6.922;2023-04-16T05:35:55;8.70;99.90
28524;DHT22;15734;50.904;6.922;2023-04-16T05:38:21;8.70;99.90
28524;DHT22;15734;50.904;6.922;2023-04-16T05:40:46;8.70;99.90
28524;DHT22;15734;50.904;6.922;2023-04-16T05:43:11;8.70;99.90
28524;DHT22;15734;50.904;6.922;2023-04-16T05:45:37;8.70;99.90
28524;DHT22;15734;50.904;6.922;2023-04-16T05:48:08;8.80;99.90
28524;DHT22;15734;50.904;6.922;2023-04-16T05:50:34;8.80;99.90
28524;DHT22;15734;50.904;6.922;2023-04-16T05:53:01;8.80;99.90
28524;DHT22;15734;50.904;6.922;2023-04-16T05:55:26;8.80;99.90
28524;DHT22;15734;50.904;6.922;2023-04-16T05:57:52;8.80;99.90
28524;DHT22;15734;50.904;6.922;2023-04-16T06:00:17;8.80;99.90
28524;DHT22;15734;50.904;6.922;2023-04-16T06:02:42;8.90;99.90
28524;DHT22;15734;50.904;6.922;2023-04-16T06:05:08;8.80;99.90
28524;DHT22;15734;50.904;6.922;2023-04-16T06:07:33;8.90;99.90
28524;DHT22;15734;50.904;6.922;2023-04-16T06:09:59;8.90;99.90
28524;DHT22;15734;50.904;6.922;2023-04-16T06:12:24;8.90;99.90
28524;DHT22;15734;50.904;6.922;2023-04-16T06:14:50;8.90;99.90
28524;DHT22;15734;50.904;6.922;2023-04-16T06:17:15;8.90;99.90
28524;DHT22;15734;50.904;6.922;2023-04-16T06:19:41;8.90;99.90
28524;DHT22;15734;50.904;6.922;2023-04-16T06:22:06;9.00;99.90
28524;DHT22;15734;50.904;6.922;2023-04-16T06:24:32;9.00;99.90
28524;DHT22;15734;50.904;6.922;2023-04-16T06:26:57;8.90;99.90
28524;DHT22;15734;50.904;6.922;2023-04-16T06:29:23;9.00;99.90
28524;DHT22;15734;50.904;6.922;2023-04-16T06:31:48;9.00;99.90
28524;DHT22;15734;50.904;6.922;2023-04-16T06:34:13;8.90;99.90
28524;DHT22;15734;50.904;6.922;2023-04-16T06:36:39;9.00;99.90
28524;DHT22;15734;50.904;6.922;2023-04-16T06:39:05;9.00;99.90
28524;DHT22;15734;50.904;6.922;2023-04-16T06:41:30;9.00;99.90
28524;DHT22;15734;50.904;6.922;2023-04-16T06:43:55;9.00;99.90
28524;DHT22;15734;50.904;6.922;2023-04-16T06:46:21;9.00;99.90
28524;DHT22;15734;50.904;6.922;2023-04-16T06:48:46;9.00;99.90
28524;DHT22;15734;50.904;6.922;2023-04-16T06:51:12;9.00;99.90
28524;DHT22;15734;50.904;6.922;2023-04-16T06:53:37;9.10;99.90
28524;DHT22;15734;50.904;6.922;2023-04-16T06:56:03;9.10;99.90
28524;DHT22;15734;50.904;6.922;2023-04-16T06:58:28;9.10;99.90
28524;DHT22;15734;50.904;6.922;2023-04-16T07:00:54;9.10;99.90
28524;DHT22;15734;50.904;6.922;2023-04-16T07:03:19;9.10;99.90
28524;DHT22;15734;50.904;6.922;2023-04-16T07:05:45;9.10;99.90
28524;DHT22;15734;50.904;6.922;2023-04-16T07:08:11;9.10;99.90
28524;DHT22;15734;50.904;6.922;2023-04-16T07:10:36;9.10;99.90
28524;DHT22;15734;50.904;6.922;2023-04-16T07:13:02;9.10;99.90
28524;DHT22;15734;50.904;6.922;2023-04-16T07:15:27;9.10;99.90
28524;DHT22;15734;50.904;6.922;2023-04-16T07:17:53;9.10;99.90
28524;DHT22;15734;50.904;6.922;2023-04-16T07:20:18;9.10;99.90
28524;DHT22;15734;50.904;6.922;2023-04-16T07:22:44;9.20;99.90
28524;DHT22;15734;50.904;6.922;2023-04-16T07:25:09;9.20;99.90
28524;DHT22;15734;50.904;6.922;2023-04-16T07:27:35;9.20;99.90
28524;DHT22;15734;50.904;6.922;2023-04-16T07:30:00;9.20;99.90
28524;DHT22;15734;50.904;6.922;2023-04-16T07:32:26;9.20;99.90
28524;DHT22;15734;50.904;6.922;2023-04-16T07:34:51;9.20;99.90
28524;DHT22;15734;50.904;6.922;2023-04-16T07:37:16;9.20;99.90
28524;DHT22;15734;50.904;6.922;2023-04-16T07:39:42;9.20;99.90
28524;DHT22;15734;50.904;6.922;2023-04-16T07:42:07;9.20;99.90
28524;DHT22;15734;50.904;6.922;2023-04-16T07:44:33;9.30;99.90
28524;DHT22;15734;50.904;6.922;2023-04-16T07:46:58;9.20;99.90
28524;DHT22;15734;50.904;6.922;2023-04-16T07:49:24;9.30;99.90
28524;DHT22;15734;50.904;6.922;2023-04-16T07:51:49;9.30;99.90
28524;DHT22;15734;50.904;6.922;2023-04-16T07:54:15;9.30;99.90
28524;DHT22;15734;50.904;6.922;2023-04-16T07:56:40;9.40;99.90
28524;DHT22;15734;50.904;6.922;2023-04-16T07:59:06;9.40;99.90
28524;DHT22;15734;50.904;6.922;2023-04-16T08:01:31;9.40;99.90
28524;DHT22;15734;50.904;6.922;2023-04-16T08:03:57;9.40;99.90
28524;DHT22;15734;50.904;6.922;2023-04-16T08:06:23;9.50;99.90
28524;DHT22;15734;50.904;6.922;2023-04-16T08:08:49;9.50;99.90
28524;DHT22;15734;50.904;6.922;2023-04-16T08:11:14;9.50;99.90
28524;DHT22;15734;50.904;6.922;2023-04-16T08:13:40;9.50;99.90
28524;DHT22;15734;50.904;6.922;2023-04-16T08:16:05;9.50;99.90
28524;DHT22;15734;50.904;6.922;2023-04-16T08:18:31;9.50;99.90
28524;DHT22;15734;50.904;6.922;2023-04-16T08:20:57;9.50;99.90
28524;DHT22;15734;50.904;6.922;2023-04-16T08:23:22;9.70;99.90
28524;DHT22;15734;50.904;6.922;2023-04-16T08:25:47;9.70;99.90
28524;DHT22;15734;50.904;6.922;2023-04-16T08:28:13;9.80;99.90
28524;DHT22;15734;50.904;6.922;2023-04-16T08:30:38;9.80;99.90
28524;DHT22;15734;50.904;6.922;2023-04-16T08:33:04;9.80;99.90
28524;DHT22;15734;50.904;6.922;2023-04-16T08:35:30;9.70;99.90
28524;DHT22;15734;50.904;6.922;2023-04-16T08:37:55;9.70;99.90
28524;DHT22;15734;50.904;6.922;2023-04-16T08:40:23;9.80;99.90
28524;DHT22;15734;50.904;6.922;2023-04-16T08:42:52;9.90;99.90
28524;DHT22;15734;50.904;6.922;2023-04-16T08:45:18;10.00;99.90
28524;DHT22;15734;50.904;6.922;2023-04-16T08:47:44;10.00;99.90
28524;DHT22;15734;50.904;6.922;2023-04-16T08:50:10;10.20;99.90
28524;DHT22;15734;50.904;6.922;2023-04-16T08:52:36;10.10;99.90
28524;DHT22;15734;50.904;6.922;2023-04-16T08:55:13;10.10;99.90
28524;DHT22;15734;50.904;6.922;2023-04-16T08:57:46;10.10;99.90
28524;DHT22;15734;50.904;6.922;2023-04-16T09:00:11;10.10;99.90
28524;DHT22;15734;50.904;6.922;2023-04-16T09:02:37;10.10;99.90
28524;DHT22;15734;50.904;6.922;2023-04-16T09:05:04;10.10;99.90
28524;DHT22;15734;50.904;6.922;2023-04-16T09:07:30;10.10;99.90
28524;DHT22;15734;50.904;6.922;2023-04-16T09:09:56;10.20;99.90
28524;DHT22;15734;50.904;6.922;2023-04-16T09:12:23;10.10;99.90
28524;DHT22;15734;50.904;6.922;2023-04-16T09:14:49;10.20;99.90
28524;DHT22;15734;50.904;6.922;2023-04-16T09:17:15;10.40;99.90
28524;DHT22;15734;50.904;6.922;2023-04-16T09:19:41;10.40;99.90
28524;DHT22;15734;50.904;6.922;2023-04-16T09:22:06;10.60;99.90
28524;DHT22;15734;50.904;6.922;2023-04-16T09:24:32;10.70;99.90
28524;DHT22;15734;50.904;6.922;2023-04-16T09:26:58;10.70;99.90
28524;DHT22;15734;50.904;6.922;2023-04-16T09:29:34;10.70;99.90
28524;DHT22;15734;50.904;6.922;2023-04-16T09:32:07;10.70;99.90
28524;DHT22;15734;50.904;6.922;2023-04-16T09:34:33;10.70;99.90
28524;DHT22;15734;50.904;6.922;2023-04-16T09:37:14;10.70;99.90
28524;DHT22;15734;50.904;6.922;2023-04-16T09:39:44;10.70;99.90
28524;DHT22;15734;50.904;6.922;2023-04-16T09:42:20;10.80;99.90
28524;DHT22;15734;50.904;6.922;2023-04-16T09:44:45;10.90;99.90
28524;DHT22;15734;50.904;6.922;2023-04-16T09:47:13;10.90;99.90
28524;DHT22;15734;50.904;6.922;2023-04-16T09:49:42;10.90;99.90
28524;DHT22;15734;50.904;6.922;2023-04-16T09:52:14;10.90;99.90
28524;DHT22;15734;50.904;6.922;2023-04-16T09:54:44;10.90;99.90
28524;DHT22;15734;50.904;6.922;2023-04-16T09:57:10;11.00;99.90
28524;DHT22;15734;50.904;6.922;2023-04-16T09:59:36;11.10;99.90
28524;DHT22;15734;50.904;6.922;2023-04-16T10:02:02;11.10;99.90
28524;DHT22;15734;50.904;6.922;2023-04-16T10:04:27;11.00;99.90
28524;DHT22;15734;50.904;6.922;2023-04-16T10:07:02;11.00;99.90
28524;DHT22;15734;50.904;6.922;2023-04-16T10:09:35;11.00;99.90
28524;DHT22;15734;50.904;6.922;2023-04-16T10:12:01;10.90;99.90
28524;DHT22;15734;50.904;6.922;2023-04-16T10:14:26;10.90;99.90
28524;DHT22;15734;50.904;6.922;2023-04-16T10:16:52;11.00;99.90
28524;DHT22;15734;50.904;6.922;2023-04-16T10:19:18;11.10;99.90
28524;DHT22;15734;50.904;6.922;2023-04-16T10:21:43;11.10;99.90
28524;DHT22;15734;50.904;6.922;2023-04-16T10:24:09;11.20;99.90
28524;DHT22;15734;50.904;6.922;2023-04-16T10:26:35;11.20;99.90
28524;DHT22;15734;50.904;6.922;2023-04-16T10:29:01;11.20;99.90
28524;DHT22;15734;50.904;6.922;2023-04-16T10:31:26;11.30;99.90
28524;DHT22;15734;50.904;6.922;2023-04-16T10:33:52;11.30;99.90
28524;DHT22;15734;50.904;6.922;2023-04-16T10:36:22;11.40;99.90
28524;DHT22;15734;50.904;6.922;2023-04-16T10:38:48;11.50;99.90
28524;DHT22;15734;50.904;6.922;2023-04-16T10:41:14;11.50;99.90
28524;DHT22;15734;50.904;6.922;2023-04-16T10:43:41;11.40;99.90
28524;DHT22;15734;50.904;6.922;2023-04-16T10:48:48;11.40;99.90
28524;DHT22;15734;50.904;6.922;2023-04-16T10:51:22;11.40;99.90
28524;DHT22;15734;50.904;6.922;2023-04-16T10:53:47;11.40;99.90
28524;DHT22;15734;50.904;6.922;2023-04-16T10:56:13;11.40;99.90
28524;DHT22;15734;50.904;6.922;2023-04-16T10:58:39;11.50;99.90
28524;DHT22;15734;50.904;6.922;2023-04-16T11:01:06;11.50;99.90
28524;DHT22;15734;50.904;6.922;2023-04-16T11:03:31;11.50;99.90
28524;DHT22;15734;50.904;6.922;2023-04-16T11:06:30;11.60;99.90
28524;DHT22;15734;50.904;6.922;2023-04-16T11:08:52;11.80;99.90
28524;DHT22;15734;50.904;6.922;2023-04-16T11:11:17;11.80;99.90
28524;DHT22;15734;50.904;6.922;2023-04-16T11:13:43;11.80;99.90
28524;DHT22;15734;50.904;6.922;2023-04-16T11:16:13;11.90;99.90
28524;DHT22;15734;50.904;6.922;2023-04-16T11:18:39;12.10;99.90
28524;DHT22;15734;50.904;6.922;2023-04-16T11:21:09;12.20;99.90
28524;DHT22;15734;50.904;6.922;2023-04-16T11:23:47;12.40;99.90
28524;DHT22;15734;50.904;6.922;2023-04-16T11:26:26;12.40;99.90
28524;DHT22;15734;50.904;6.922;2023-04-16T11:28:53;12.40;99.90
28524;DHT22;15734;50.904;6.922;2023-04-16T11:31:18;12.30;99.90
28524;DHT22;15734;50.904;6.922;2023-04-16T11:33:44;12.20;99.90
28524;DHT22;15734;50.904;6.922;2023-04-16T11:36:10;12.20;99.90
28524;DHT22;15734;50.904;6.922;2023-04-16T11:38:35;12.20;99.90
28524;DHT22;15734;50.904;6.922;2023-04-16T11:41:01;12.30;99.90
28524;DHT22;15734;50.904;6.922;2023-04-16T11:43:27;12.40;99.90
28524;DHT22;15734;50.904;6.922;2023-04-16T11:46:00;12.40;99.90
28524;DHT22;15734;50.904;6.922;2023-04-16T11:48:44;12.40;99.90
28524;DHT22;15734;50.904;6.922;2023-04-16T11:51:11;12.30;99.90
28524;DHT22;15734;50.904;6.922;2023-04-16T11:53:44;12.30;99.90
28524;DHT22;15734;50.904;6.922;2023-04-16T11:56:09;12.30;99.90
28524;DHT22;15734;50.904;6.922;2023-04-16T11:58:35;12.30;99.90
28524;DHT22;15734;50.904;6.922;2023-04-16T12:01:01;12.20;99.90
28524;DHT22;15734;50.904;6.922;2023-04-16T12:03:37;12.30;99.90
28524;DHT22;15734;50.904;6.922;2023-04-16T12:06:08;12.30;99.90
28524;DHT22;15734;50.904;6.922;2023-04-16T12:08:34;12.30;99.90
28524;DHT22;15734;50.904;6.922;2023-04-16T12:10:59;12.30;99.90
28524;DHT22;15734;50.904;6.922;2023-04-16T12:13:25;12.30;99.90
28524;DHT22;15734;50.904;6.922;2023-04-16T12:18:16;12.30;99.90
28524;DHT22;15734;50.904;6.922;2023-04-16T12:20:42;12.30;99.90
28524;DHT22;15734;50.904;6.922;2023-04-16T12:23:08;12.30;99.90
28524;DHT22;15734;50.904;6.922;2023-04-16T12:25:34;12.30;99.90
28524;DHT22;15734;50.904;6.922;2023-04-16T12:28:00;12.40;99.90
28524;DHT22;15734;50.904;6.922;2023-04-16T12:30:26;12.50;99.90
28524;DHT22;15734;50.904;6.922;2023-04-16T12:32:52;12.60;99.90
28524;DHT22;15734;50.904;6.922;2023-04-16T12:35:37;12.70;99.90
28524;DHT22;15734;50.904;6.922;2023-04-16T12:38:02;12.90;99.90
28524;DHT22;15734;50.904;6.922;2023-04-16T12:40:28;12.90;99.90
28524;DHT22;15734;50.904;6.922;2023-04-16T12:42:53;12.80;99.90
28524;DHT22;15734;50.904;6.922;2023-04-16T12:45:19;12.70;99.90
28524;DHT22;15734;50.904;6.922;2023-04-16T12:47:45;12.80;99.90
28524;DHT22;15734;50.904;6.922;2023-04-16T12:50:10;12.90;99.90
28524;DHT22;15734;50.904;6.922;2023-04-16T12:52:36;13.00;99.90
28524;DHT22;15734;50.904;6.922;2023-04-16T12:55:01;13.10;99.90
28524;DHT22;15734;50.904;6.922;2023-04-16T12:57:27;13.20;99.90
28524;DHT22;15734;50.904;6.922;2023-04-16T12:59:56;13.20;99.90
28524;DHT22;15734;50.904;6.922;2023-04-16T13:02:22;13.10;99.90
28524;DHT22;15734;50.904;6.922;2023-04-16T13:04:48;13.40;99.90
28524;DHT22;15734;50.904;6.922;2023-04-16T13:07:13;13.70;99.90
28524;DHT22;15734;50.904;6.922;2023-04-16T13:09:39;13.80;99.90
28524;DHT22;15734;50.904;6.922;2023-04-16T13:12:05;14.00;99.90
28524;DHT22;15734;50.904;6.922;2023-04-16T13:14:31;14.00;99.90
28524;DHT22;15734;50.904;6.922;2023-04-16T13:16:56;13.90;99.90
28524;DHT22;15734;50.904;6.922;2023-04-16T13:19:22;13.90;99.90
28524;DHT22;15734;50.904;6.922;2023-04-16T13:21:47;13.90;99.90
28524;DHT22;15734;50.904;6.922;2023-04-16T13:24:13;13.80;99.90
28524;DHT22;15734;50.904;6.922;2023-04-16T13:26:38;13.80;99.90
28524;DHT22;15734;50.904;6.922;2023-04-16T13:29:04;13.60;99.90
28524;DHT22;15734;50.904;6.922;2023-04-16T13:31:29;13.60;99.90
28524;DHT22;15734;50.904;6.922;2023-04-16T13:33:55;13.60;99.90
28524;DHT22;15734;50.904;6.922;2023-04-16T13:36:20;13.60;99.90
28524;DHT22;15734;50.904;6.922;2023-04-16T13:38:45;13.70;99.90
28524;DHT22;15734;50.904;6.922;2023-04-16T13:41:11;13.60;99.90
28524;DHT22;15734;50.904;6.922;2023-04-16T13:43:36;13.50;99.90
28524;DHT22;15734;50.904;6.922;2023-04-16T13:46:02;13.60;99.90
28524;DHT22;15734;50.904;6.922;2023-04-16T13:48:27;13.60;99.90
28524;DHT22;15734;50.904;6.922;2023-04-16T13:50:53;13.60;99.90
28524;DHT22;15734;50.904;6.922;2023-04-16T13:53:19;13.60;99.90
28524;DHT22;15734;50.904;6.922;2023-04-16T13:55:44;13.60;99.90
28524;DHT22;15734;50.904;6.922;2023-04-16T13:58:10;13.50;99.90
28524;DHT22;15734;50.904;6.922;2023-04-16T14:00:36;13.50;99.90
28524;DHT22;15734;50.904;6.922;2023-04-16T14:03:01;13.60;99.90
28524;DHT22;15734;50.904;6.922;2023-04-16T14:05:27;13.70;99.90
28524;DHT22;15734;50.904;6.922;2023-04-16T14:07:52;13.60;99.90
28524;DHT22;15734;50.904;6.922;2023-04-16T14:10:18;13.60;99.90
28524;DHT22;15734;50.904;6.922;2023-04-16T14:12:43;13.50;99.90
28524;DHT22;15734;50.904;6.922;2023-04-16T14:15:09;13.50;99.90
28524;DHT22;15734;50.904;6.922;2023-04-16T14:17:35;13.50;99.90
28524;DHT22;15734;50.904;6.922;2023-04-16T14:20:04;13.60;99.90
28524;DHT22;15734;50.904;6.922;2023-04-16T14:22:30;13.60;99.90
28524;DHT22;15734;50.904;6.922;2023-04-16T14:24:55;13.60;99.90
28524;DHT22;15734;50.904;6.922;2023-04-16T14:27:21;13.60;99.90
28524;DHT22;15734;50.904;6.922;2023-04-16T14:29:46;13.60;99.90
28524;DHT22;15734;50.904;6.922;2023-04-16T14:32:12;13.60;99.90
28524;DHT22;15734;50.904;6.922;2023-04-16T14:34:38;13.60;99.90
28524;DHT22;15734;50.904;6.922;2023-04-16T14:37:03;13.60;99.90
28524;DHT22;15734;50.904;6.922;2023-04-16T14:39:29;13.70;99.90
28524;DHT22;15734;50.904;6.922;2023-04-16T14:41:55;13.70;99.90
28524;DHT22;15734;50.904;6.922;2023-04-16T14:44:20;13.70;99.90
28524;DHT22;15734;50.904;6.922;2023-04-16T14:46:47;13.80;99.90
28524;DHT22;15734;50.904;6.922;2023-04-16T14:49:12;13.90;99.90
28524;DHT22;15734;50.904;6.922;2023-04-16T14:51:38;13.90;99.90
28524;DHT22;15734;50.904;6.922;2023-04-16T14:54:04;14.00;99.90
28524;DHT22;15734;50.904;6.922;2023-04-16T14:56:30;14.10;99.90
28524;DHT22;15734;50.904;6.922;2023-04-16T14:58:55;14.20;99.90
28524;DHT22;15734;50.904;6.922;2023-04-16T15:01:21;14.30;99.90
28524;DHT22;15734;50.904;6.922;2023-04-16T15:03:46;14.40;99.90
28524;DHT22;15734;50.904;6.922;2023-04-16T15:06:12;14.50;99.90
28524;DHT22;15734;50.904;6.922;2023-04-16T15:08:38;14.40;99.90
28524;DHT22;15734;50.904;6.922;2023-04-16T15:11:04;14.40;99.90
28524;DHT22;15734;50.904;6.922;2023-04-16T15:13:30;14.50;99.90
28524;DHT22;15734;50.904;6.922;2023-04-16T15:16:01;14.50;99.90
28524;DHT22;15734;50.904;6.922;2023-04-16T15:18:30;14.50;99.90
28524;DHT22;15734;50.904;6.922;2023-04-16T15:20:56;14.50;99.90
28524;DHT22;15734;50.904;6.922;2023-04-16T15:23:21;14.40;99.90
28524;DHT22;15734;50.904;6.922;2023-04-16T15:25:47;14.40;99.90
28524;DHT22;15734;50.904;6.922;2023-04-16T15:28:12;14.40;99.90
28524;DHT22;15734;50.904;6.922;2023-04-16T15:30:40;14.50;99.90
28524;DHT22;15734;50.904;6.922;2023-04-16T15:33:06;14.50;99.90
28524;DHT22;15734;50.904;6.922;2023-04-16T15:35:32;14.60;99.90
28524;DHT22;15734;50.904;6.922;2023-04-16T15:37:57;14.50;99.90